Open Full Screen Window  High Contrast Mode
September 25, 2017 5:35 AM EDT
Weather Information
Wind Direction
  ---
Wind Speed
  00 kt (0 mph)
Wind Gust
  00 kt (0 mph)
Altimeter
30.06 in
Visibility
10 SM
Temperature
17° C
63° F
Dewpoint
16° C
61° F
Humidity
94%
1hr Rain Fall
00.00 in.
24hr Rain Fall
00.00 in.
Sky Condition
Clear
VFR

METAR KI19 250935Z AUTO 00000KT 10SM CLR 17/16 A3006 RMK AO2 T01650158

*Background is not an actual portrayal of the airport.